Time;durP1;ratioP1;P1;durP2;ratioP2;P2;SDS_P1;SDS_P2;PMS_P1;PMS_P2;Temp;Humidity;BMP_temperature;BMP_pressure;BME280_temperature;BME280_humidity;BME280_pressure;Samples;Min_cycle;Max_cycle;Signal;HPM_P1;HPM_P2
2021/08/27 00:01:46;;;;;;;4.47;1.60;;;12.60;99.90;;;;;;5071951;28;20357;-78
2021/08/27 00:04:12;;;;;;;5.70;1.95;;;12.60;99.90;;;;;;5077324;28;20020;-77
2021/08/27 00:06:37;;;;;;;4.25;1.38;;;12.60;99.90;;;;;;5090016;28;20527;-78
2021/08/27 00:09:03;;;;;;;5.78;1.70;;;12.60;99.90;;;;;;5057198;28;20063;-77
2021/08/27 00:11:29;;;;;;;7.35;1.88;;;12.50;99.90;;;;;;5056968;28;20107;-78
2021/08/27 00:13:54;;;;;;;2.10;1.10;;;12.60;99.90;;;;;;5061042;28;20028;-75
2021/08/27 00:16:20;;;;;;;4.75;1.20;;;12.60;99.90;;;;;;5077067;28;20024;-78
2021/08/27 00:18:45;;;;;;;4.07;2.38;;;12.70;99.90;;;;;;5076159;28;20127;-78
2021/08/27 00:21:11;;;;;;;4.43;1.58;;;12.60;99.90;;;;;;5062984;28;20021;-77
2021/08/27 00:23:36;;;;;;;5.40;1.60;;;12.60;99.90;;;;;;5057127;28;20028;-78
2021/08/27 00:26:03;;;;;;;7.85;1.40;;;12.60;99.90;;;;;;5055665;28;20111;-78
2021/08/27 00:28:28;;;;;;;5.57;1.13;;;12.60;99.90;;;;;;5056985;28;20025;-78
2021/08/27 00:30:57;;;;;;;5.60;1.98;;;12.50;99.90;;;;;;5056599;28;20093;-80
2021/08/27 00:33:24;;;;;;;7.65;1.63;;;12.40;99.90;;;;;;5056392;28;20036;-79
2021/08/27 00:35:51;;;;;;;4.22;1.70;;;12.40;99.90;;;;;;5056481;28;20028;-81
2021/08/27 00:38:17;;;;;;;4.03;1.52;;;12.40;99.90;;;;;;5056766;28;20469;-78
2021/08/27 00:40:43;;;;;;;6.72;1.80;;;12.40;99.90;;;;;;5055500;28;20385;-78
2021/08/27 00:43:11;;;;;;;5.53;1.73;;;12.40;99.90;;;;;;5056769;28;20055;-77
2021/08/27 00:45:38;;;;;;;8.77;1.73;;;12.30;99.90;;;;;;5057048;28;20024;-78
2021/08/27 00:48:04;;;;;;;6.40;1.40;;;12.30;99.90;;;;;;5073515;28;20021;-77
2021/08/27 00:50:29;;;;;;;5.53;1.73;;;12.30;99.90;;;;;;5056457;28;20039;-78
2021/08/27 00:52:55;;;;;;;4.75;1.65;;;12.40;99.90;;;;;;5056256;28;20017;-78
2021/08/27 00:55:21;;;;;;;4.90;1.27;;;12.30;99.90;;;;;;5055443;28;20044;-78
2021/08/27 00:57:47;;;;;;;3.95;1.80;;;12.30;99.90;;;;;;5056023;28;20051;-80
2021/08/27 01:00:13;;;;;;;6.95;1.45;;;12.30;99.90;;;;;;5055864;28;20064;-79
2021/08/27 01:02:39;;;;;;;2.50;1.60;;;12.30;99.90;;;;;;5055468;28;20032;-80
2021/08/27 01:05:08;;;;;;;3.63;1.20;;;12.30;99.90;;;;;;5056043;28;20032;-79
2021/08/27 01:07:49;;;;;;;5.55;1.20;;;12.20;99.90;;;;;;5055966;28;20025;-78
2021/08/27 01:10:24;;;;;;;4.75;1.55;;;12.20;99.90;;;;;;5055776;28;20020;-80
2021/08/27 01:12:49;;;;;;;5.03;1.63;;;12.20;99.90;;;;;;5056059;28;20066;-81
2021/08/27 01:15:19;;;;;;;8.85;1.67;;;12.20;99.90;;;;;;5055484;28;20024;-82
2021/08/27 01:17:59;;;;;;;4.82;1.80;;;12.10;99.90;;;;;;5073401;28;20171;-80
2021/08/27 01:20:39;;;;;;;2.40;1.40;;;12.10;99.90;;;;;;5055881;28;20111;-78
2021/08/27 01:23:26;;;;;;;6.70;1.58;;;12.10;99.90;;;;;;5055201;28;20029;-79
2021/08/27 01:25:55;;;;;;;5.68;1.60;;;12.10;99.90;;;;;;5055712;28;20492;-79
2021/08/27 01:28:25;;;;;;;4.60;1.30;;;12.20;99.90;;;;;;5055899;28;20036;-79
2021/08/27 01:31:06;;;;;;;2.38;1.20;;;12.10;99.90;;;;;;5054601;28;20044;-79
2021/08/27 01:33:34;;;;;;;5.13;1.60;;;12.10;99.90;;;;;;5056274;28;20028;-79
2021/08/27 01:36:02;;;;;;;2.55;1.48;;;12.10;99.90;;;;;;5054805;28;20020;-80
2021/08/27 01:38:33;;;;;;;5.90;1.90;;;12.10;99.90;;;;;;5055725;28;20107;-80
2021/08/27 01:40:59;;;;;;;6.80;1.92;;;12.20;99.90;;;;;;5055289;28;20113;-79
2021/08/27 01:43:26;;;;;;;4.65;1.65;;;12.10;99.90;;;;;;5054882;28;20525;-79
2021/08/27 01:45:57;;;;;;;3.97;1.63;;;12.10;99.90;;;;;;5055392;28;20021;-82
2021/08/27 01:48:24;;;;;;;5.97;1.95;;;12.10;99.90;;;;;;5055383;28;20012;-81
2021/08/27 01:50:54;;;;;;;3.25;1.15;;;12.10;99.90;;;;;;5054636;28;20439;-82
2021/08/27 01:53:22;;;;;;;4.03;1.40;;;12.10;99.90;;;;;;5055583;28;20016;-81
2021/08/27 01:55:48;;;;;;;4.63;1.73;;;12.10;99.90;;;;;;5055258;28;20499;-79
2021/08/27 01:58:13;;;;;;;4.35;1.73;;;12.10;99.90;;;;;;5054536;28;20016;-78
2021/08/27 02:00:40;;;;;;;2.42;1.10;;;12.10;99.90;;;;;;5054854;28;20029;-78
2021/08/27 02:03:07;;;;;;;13.10;2.47;;;12.10;99.90;;;;;;5054801;28;20048;-78
2021/08/27 02:05:33;;;;;;;3.95;1.40;;;12.10;99.90;;;;;;5054473;28;20027;-78
2021/08/27 02:08:01;;;;;;;4.50;1.75;;;12.10;99.90;;;;;;5054931;28;20036;-78
2021/08/27 02:10:28;;;;;;;8.00;1.90;;;12.20;99.90;;;;;;5055149;28;20442;-78
2021/08/27 02:12:53;;;;;;;9.85;2.42;;;12.20;99.90;;;;;;5054387;28;20021;-78
2021/08/27 02:15:23;;;;;;;5.57;2.33;;;12.20;99.90;;;;;;5054906;28;20116;-79
2021/08/27 02:17:49;;;;;;;5.15;1.85;;;12.20;99.90;;;;;;5055161;28;20124;-78
2021/08/27 02:20:16;;;;;;;6.82;2.10;;;12.20;99.90;;;;;;5054138;28;20044;-75
2021/08/27 02:22:45;;;;;;;7.18;1.77;;;12.20;99.90;;;;;;5054995;28;20095;-78
2021/08/27 02:25:14;;;;;;;4.95;1.77;;;12.30;99.90;;;;;;5054421;28;20120;-78
2021/08/27 02:27:42;;;;;;;10.63;2.67;;;12.40;99.90;;;;;;5054721;28;20025;-79
2021/08/27 02:30:08;;;;;;;11.15;1.90;;;12.50;99.90;;;;;;5054592;28;20412;-79
2021/08/27 02:32:35;;;;;;;5.57;1.50;;;12.60;99.90;;;;;;5054326;28;20032;-79
2021/08/27 02:35:03;;;;;;;5.93;1.90;;;12.70;99.90;;;;;;5054438;28;20066;-79
2021/08/27 02:37:33;;;;;;;7.00;2.10;;;12.70;99.90;;;;;;5054713;28;20029;-79
2021/08/27 02:40:01;;;;;;;5.38;1.80;;;12.80;99.90;;;;;;5053628;28;20481;-79
2021/08/27 02:42:31;;;;;;;8.55;2.63;;;12.70;99.90;;;;;;5072665;28;20059;-78
2021/08/27 02:44:57;;;;;;;5.45;1.58;;;12.70;99.90;;;;;;5054708;28;20013;-81
2021/08/27 02:47:23;;;;;;;7.65;2.40;;;12.60;99.90;;;;;;5054091;28;20033;-80
2021/08/27 02:49:50;;;;;;;2.60;1.60;;;12.60;99.90;;;;;;5054685;28;20377;-79
2021/08/27 02:52:48;;;;;;;5.25;1.67;;;12.50;99.90;;;;;;5054713;28;20042;-79
2021/08/27 02:55:20;;;;;;;5.53;1.73;;;12.50;99.90;;;;;;5032907;28;20849;-79
2021/08/27 02:58:00;;;;;;;4.60;1.58;;;12.40;99.90;;;;;;5072643;28;20028;-79
2021/08/27 03:00:28;;;;;;;4.75;1.70;;;12.40;99.90;;;;;;5054131;28;20490;-81
2021/08/27 03:02:55;;;;;;;4.32;1.63;;;12.40;99.90;;;;;;5058238;28;20099;-81
2021/08/27 03:05:26;;;;;;;3.35;1.45;;;12.40;99.90;;;;;;5058540;28;20043;-80
2021/08/27 03:07:58;;;;;;;2.95;1.50;;;12.40;99.90;;;;;;5057802;28;20027;-81
2021/08/27 03:10:29;;;;;;;6.30;1.60;;;12.50;99.90;;;;;;5058333;28;20031;-80
2021/08/27 03:13:07;;;;;;;6.70;1.73;;;12.60;99.90;;;;;;5058176;28;20115;-80
2021/08/27 03:15:35;;;;;;;3.65;1.65;;;12.70;99.90;;;;;;5051911;28;20024;-80
2021/08/27 03:18:07;;;;;;;5.55;1.65;;;12.80;99.90;;;;;;5057626;28;20035;-79
2021/08/27 03:20:42;;;;;;;6.63;1.75;;;12.90;99.90;;;;;;5058228;28;20029;-79
2021/08/27 03:23:11;;;;;;;6.43;2.20;;;12.90;99.90;;;;;;5057841;28;20017;-79
2021/08/27 03:25:39;;;;;;;6.55;1.73;;;13.00;99.90;;;;;;5058163;28;20392;-78
2021/08/27 03:28:08;;;;;;;4.60;1.90;;;13.00;99.90;;;;;;5058008;28;20035;-78
2021/08/27 03:30:35;;;;;;;7.68;1.98;;;13.00;99.90;;;;;;5057144;28;20013;-78
2021/08/27 03:33:07;;;;;;;2.38;1.20;;;13.00;99.90;;;;;;5057519;28;20029;-77
2021/08/27 03:35:33;;;;;;;4.53;1.35;;;13.10;99.90;;;;;;5057216;28;20016;-78
2021/08/27 03:38:00;;;;;;;4.07;1.55;;;13.10;99.90;;;;;;5057596;28;20035;-77
2021/08/27 03:40:27;;;;;;;5.47;1.70;;;13.10;99.90;;;;;;5058039;28;20078;-79
2021/08/27 03:42:53;;;;;;;4.30;1.70;;;13.20;99.90;;;;;;5056847;28;20016;-80
2021/08/27 03:45:22;;;;;;;2.83;1.50;;;13.20;99.90;;;;;;5075341;28;20037;-78
2021/08/27 03:47:49;;;;;;;3.38;1.40;;;13.30;99.90;;;;;;5057338;28;20024;-77
2021/08/27 03:50:15;;;;;;;5.68;2.13;;;13.30;99.90;;;;;;5056801;28;20017;-81
2021/08/27 03:52:42;;;;;;;3.13;1.65;;;13.30;99.90;;;;;;5075643;28;20032;-78
2021/08/27 03:55:15;;;;;;;5.55;1.95;;;13.30;99.90;;;;;;5057743;28;20020;-79
2021/08/27 03:57:44;;;;;;;3.20;1.70;;;13.30;99.90;;;;;;5074682;28;20028;-78
2021/08/27 04:00:10;;;;;;;3.88;1.40;;;13.30;99.90;;;;;;5057032;28;20063;-77
2021/08/27 04:02:36;;;;;;;5.00;1.77;;;13.30;99.90;;;;;;5057814;28;20017;-80
2021/08/27 04:05:16;;;;;;;4.47;1.80;;;13.40;99.90;;;;;;5056828;28;20036;-79
2021/08/27 04:07:43;;;;;;;9.88;2.28;;;13.30;99.90;;;;;;5075080;28;20032;-81
2021/08/27 04:10:10;;;;;;;4.40;1.52;;;13.20;99.90;;;;;;5057433;28;20507;-79
2021/08/27 04:12:39;;;;;;;2.80;1.65;;;13.00;99.90;;;;;;5056547;28;20031;-78
2021/08/27 04:15:06;;;;;;;3.08;1.42;;;12.90;99.90;;;;;;5057005;28;20473;-78
2021/08/27 04:17:32;;;;;;;5.80;1.55;;;12.80;99.90;;;;;;5056536;28;20437;-82
2021/08/27 04:19:57;;;;;;;5.95;1.73;;;12.70;99.90;;;;;;5053552;28;20079;-78
2021/08/27 04:22:24;;;;;;;6.35;1.80;;;12.70;99.90;;;;;;5053721;28;20059;-79
2021/08/27 04:24:49;;;;;;;2.72;1.40;;;12.60;99.90;;;;;;5052831;28;20424;-80
2021/08/27 04:27:15;;;;;;;5.05;1.70;;;12.60;99.90;;;;;;5053516;28;20017;-78
2021/08/27 04:29:41;;;;;;;4.53;1.60;;;12.60;99.90;;;;;;5054279;28;20440;-78
2021/08/27 04:32:08;;;;;;;8.57;2.05;;;12.60;99.90;;;;;;5052954;28;20017;-78
2021/08/27 04:34:34;;;;;;;7.07;2.33;;;12.60;99.90;;;;;;5053626;28;20057;-79
2021/08/27 04:36:59;;;;;;;5.15;2.25;;;12.50;99.90;;;;;;5053247;28;20072;-78
2021/08/27 04:39:25;;;;;;;3.47;1.70;;;12.50;99.90;;;;;;5052702;28;20551;-78
2021/08/27 04:41:50;;;;;;;3.95;1.63;;;12.60;99.90;;;;;;5054555;28;20032;-78
2021/08/27 04:44:16;;;;;;;5.35;1.70;;;12.50;99.90;;;;;;5053392;28;20382;-84
2021/08/27 04:46:41;;;;;;;5.28;2.33;;;12.60;99.90;;;;;;5053622;28;20075;-78
2021/08/27 04:49:07;;;;;;;3.17;1.77;;;12.60;99.90;;;;;;5053509;28;20469;-79
2021/08/27 04:51:32;;;;;;;6.00;2.00;;;12.60;99.90;;;;;;5053610;28;20105;-80
2021/08/27 04:53:58;;;;;;;6.45;2.17;;;12.70;99.90;;;;;;5052446;28;20455;-80
2021/08/27 04:56:24;;;;;;;3.38;1.60;;;12.70;99.90;;;;;;5054775;28;20017;-78
2021/08/27 04:58:49;;;;;;;5.60;1.60;;;12.70;99.90;;;;;;5054235;28;20473;-78
2021/08/27 05:01:15;;;;;;;5.38;1.52;;;12.80;99.90;;;;;;5052358;28;20060;-79
2021/08/27 05:03:40;;;;;;;9.38;2.13;;;12.80;99.90;;;;;;5053264;28;20021;-77
2021/08/27 05:06:06;;;;;;;4.10;2.03;;;12.80;99.90;;;;;;5052788;28;20112;-78
2021/08/27 05:08:32;;;;;;;3.10;1.80;;;12.90;99.90;;;;;;5053505;28;20033;-78
2021/08/27 05:10:57;;;;;;;6.30;1.90;;;12.90;99.90;;;;;;5052542;28;20021;-80
2021/08/27 05:13:23;;;;;;;7.55;2.00;;;12.90;99.90;;;;;;5053126;28;20035;-80
2021/08/27 05:15:48;;;;;;;3.88;1.73;;;13.00;99.90;;;;;;5051951;28;20021;-78
2021/08/27 05:18:14;;;;;;;5.00;1.77;;;13.10;99.90;;;;;;5056939;28;20044;-79
2021/08/27 05:20:40;;;;;;;4.75;1.50;;;13.20;99.90;;;;;;5055809;28;20095;-82
2021/08/27 05:23:05;;;;;;;3.90;1.67;;;13.20;99.90;;;;;;5072733;28;20021;-80
2021/08/27 05:25:31;;;;;;;4.10;1.52;;;13.40;99.90;;;;;;5056040;28;20119;-79
2021/08/27 05:27:57;;;;;;;4.55;2.05;;;13.40;99.90;;;;;;5055203;28;20388;-80
2021/08/27 05:30:23;;;;;;;3.13;1.40;;;13.50;99.90;;;;;;5073463;28;20024;-79
2021/08/27 05:32:48;;;;;;;4.95;1.60;;;13.50;99.90;;;;;;5073773;28;20031;-80
2021/08/27 05:35:15;;;;;;;4.45;1.70;;;13.50;99.90;;;;;;5073079;28;20106;-80
2021/08/27 05:37:42;;;;;;;2.38;1.60;;;13.50;99.90;;;;;;5073482;28;20469;-81
2021/08/27 05:40:09;;;;;;;4.88;1.92;;;13.50;99.90;;;;;;5062742;28;20067;-78
2021/08/27 05:42:37;;;;;;;2.38;1.60;;;13.50;99.90;;;;;;5061270;28;20107;-79
2021/08/27 05:45:03;;;;;;;4.22;1.90;;;13.50;99.90;;;;;;5060576;28;20029;-79
2021/08/27 05:47:30;;;;;;;4.40;1.73;;;13.60;99.90;;;;;;5060356;28;20021;-79
2021/08/27 05:49:59;;;;;;;3.45;1.52;;;13.70;99.90;;;;;;5059694;28;20178;-79
2021/08/27 05:52:26;;;;;;;6.47;1.40;;;13.80;99.90;;;;;;5089359;28;20491;-78
2021/08/27 05:54:52;;;;;;;4.30;1.75;;;14.00;99.90;;;;;;5075218;28;20035;-79
2021/08/27 05:57:17;;;;;;;4.93;1.90;;;14.10;99.90;;;;;;5073775;28;20114;-80
2021/08/27 05:59:43;;;;;;;6.38;1.95;;;14.20;99.90;;;;;;5055140;28;20378;-80
2021/08/27 06:02:09;;;;;;;4.70;1.65;;;14.40;99.90;;;;;;5073210;28;20036;-79
2021/08/27 06:04:35;;;;;;;3.22;1.90;;;14.40;99.90;;;;;;5054816;28;20029;-79
2021/08/27 06:07:00;;;;;;;4.90;2.03;;;14.50;99.90;;;;;;5055257;28;20040;-79
2021/08/27 06:09:26;;;;;;;4.45;1.70;;;14.50;99.90;;;;;;5074503;28;20381;-79
2021/08/27 06:11:52;;;;;;;2.63;1.63;;;14.60;99.90;;;;;;5072509;28;20080;-80
2021/08/27 06:14:18;;;;;;;4.03;2.00;;;14.70;99.90;;;;;;5057346;28;20036;-79
2021/08/27 06:16:43;;;;;;;3.55;2.25;;;14.70;99.90;;;;;;5081616;28;20024;-79
2021/08/27 06:19:09;;;;;;;5.88;2.30;;;14.80;99.90;;;;;;5068419;28;20052;-79
2021/08/27 06:21:37;;;;;;;2.58;1.60;;;14.90;99.90;;;;;;5069185;28;20017;-73
2021/08/27 06:24:04;;;;;;;2.80;1.35;;;14.90;99.90;;;;;;5092916;28;20020;-75
2021/08/27 06:26:30;;;;;;;5.53;1.67;;;15.10;99.90;;;;;;5073730;28;20031;-77
2021/08/27 06:28:58;;;;;;;6.65;1.80;;;15.10;99.90;;;;;;5074941;28;20028;-82
2021/08/27 06:31:23;;;;;;;4.35;1.77;;;15.20;99.90;;;;;;5073965;28;20042;-77
2021/08/27 06:33:49;;;;;;;2.83;1.40;;;15.20;99.90;;;;;;5092866;28;20024;-78
2021/08/27 06:36:15;;;;;;;4.68;1.70;;;15.20;99.90;;;;;;5078673;28;20449;-78
2021/08/27 06:38:40;;;;;;;3.80;1.75;;;15.30;99.90;;;;;;5078525;28;20085;-77
2021/08/27 06:41:07;;;;;;;4.28;1.73;;;15.40;99.90;;;;;;5078593;28;20035;-80
2021/08/27 06:43:36;;;;;;;2.67;1.55;;;15.60;99.90;;;;;;5078952;28;20012;-80
2021/08/27 06:46:05;;;;;;;3.15;1.58;;;15.70;99.90;;;;;;5078223;28;20035;-83
2021/08/27 06:48:31;;;;;;;2.88;1.92;;;15.80;99.90;;;;;;5079161;28;20167;-83
2021/08/27 06:50:57;;;;;;;5.85;1.75;;;16.00;99.90;;;;;;5096873;28;20460;-82
2021/08/27 06:53:23;;;;;;;3.22;1.70;;;16.20;99.90;;;;;;5063576;28;20162;-82
2021/08/27 06:55:48;;;;;;;6.97;1.70;;;16.30;99.90;;;;;;5080296;28;20103;-83
2021/08/27 06:58:14;;;;;;;2.03;1.23;;;16.30;99.90;;;;;;5095840;28;20454;-83
2021/08/27 07:00:40;;;;;;;5.75;1.80;;;16.30;99.90;;;;;;5078132;28;20039;-81
2021/08/27 07:03:05;;;;;;;2.58;1.45;;;16.30;99.90;;;;;;5096578;28;20023;-83
2021/08/27 07:05:31;;;;;;;3.15;1.40;;;16.40;99.90;;;;;;5095529;28;20051;-84
2021/08/27 07:07:58;;;;;;;4.55;1.65;;;16.50;99.90;;;;;;5095336;28;20020;-82
2021/08/27 07:10:23;;;;;;;5.70;1.80;;;16.60;99.90;;;;;;5096438;28;20016;-82
2021/08/27 07:12:49;;;;;;;3.08;1.73;;;16.60;99.90;;;;;;5096577;28;20035;-80
2021/08/27 07:15:16;;;;;;;4.47;1.45;;;16.70;99.90;;;;;;5074423;28;20091;-82
2021/08/27 07:17:43;;;;;;;3.38;1.70;;;16.70;99.90;;;;;;5083362;28;20039;-81
2021/08/27 07:20:09;;;;;;;4.82;1.83;;;16.70;99.90;;;;;;5060028;28;20119;-80
2021/08/27 07:22:36;;;;;;;4.63;2.17;;;16.80;99.90;;;;;;5057622;28;20111;-82
2021/08/27 07:25:02;;;;;;;9.90;2.20;;;16.80;99.90;;;;;;5076019;28;20437;-82
2021/08/27 07:27:28;;;;;;;3.42;1.50;;;16.90;99.90;;;;;;5074304;28;20041;-81
2021/08/27 07:29:54;;;;;;;5.03;2.40;;;17.00;99.90;;;;;;5074491;28;20052;-80
2021/08/27 07:32:19;;;;;;;4.35;1.80;;;17.10;99.90;;;;;;5092258;28;20537;-80
2021/08/27 07:34:45;;;;;;;3.78;1.92;;;17.30;99.90;;;;;;5095177;28;20855;-82
2021/08/27 07:37:12;;;;;;;4.85;1.73;;;17.40;99.90;;;;;;5078156;28;20403;-80
2021/08/27 07:39:39;;;;;;;2.90;1.52;;;17.50;99.90;;;;;;5075753;28;20037;-80
2021/08/27 07:42:06;;;;;;;8.32;1.90;;;17.60;99.90;;;;;;5057183;28;20023;-79
2021/08/27 07:44:32;;;;;;;4.50;2.00;;;17.70;99.90;;;;;;5057908;28;20028;-80
2021/08/27 07:46:58;;;;;;;2.10;1.50;;;17.80;99.90;;;;;;5056940;28;20077;-80
2021/08/27 07:49:24;;;;;;;2.42;1.40;;;17.90;99.90;;;;;;5058974;28;20516;-80
2021/08/27 07:51:51;;;;;;;4.72;1.67;;;18.10;99.90;;;;;;5077375;28;20024;-81
2021/08/27 07:54:18;;;;;;;5.68;1.73;;;18.30;99.90;;;;;;5076656;28;20081;-77
2021/08/27 07:56:43;;;;;;;3.85;1.58;;;18.30;99.90;;;;;;5076441;28;20490;-75
2021/08/27 07:59:09;;;;;;;4.90;1.60;;;18.30;99.90;;;;;;5095356;28;20079;-77
2021/08/27 08:01:35;;;;;;;5.57;2.08;;;18.20;99.90;;;;;;5095443;28;20028;-80
2021/08/27 08:04:01;;;;;;;3.42;1.42;;;18.10;99.90;;;;;;5076568;28;20052;-75
2021/08/27 08:06:27;;;;;;;3.30;1.52;;;18.10;99.90;;;;;;5072086;28;20035;-78
2021/08/27 08:08:53;;;;;;;4.35;1.50;;;18.10;99.90;;;;;;5074825;28;20016;-79
2021/08/27 08:11:19;;;;;;;4.15;1.50;;;18.10;99.90;;;;;;5075870;28;20535;-78
2021/08/27 08:13:44;;;;;;;3.67;1.58;;;18.20;99.90;;;;;;5087542;28;20028;-77
2021/08/27 08:16:11;;;;;;;4.28;1.40;;;18.20;99.90;;;;;;5075837;28;20035;-79
2021/08/27 08:18:37;;;;;;;4.25;1.80;;;18.20;99.90;;;;;;5075412;28;20089;-78
2021/08/27 08:21:03;;;;;;;4.40;1.60;;;18.20;99.90;;;;;;5076311;28;20024;-78
2021/08/27 08:23:29;;;;;;;5.78;1.98;;;18.20;99.90;;;;;;5076428;28;20529;-76
2021/08/27 08:25:55;;;;;;;3.83;1.63;;;18.10;99.90;;;;;;5074173;28;20032;-77
2021/08/27 08:28:21;;;;;;;1.77;1.40;;;17.90;99.90;;;;;;5076069;28;20020;-78
2021/08/27 08:30:51;;;;;;;2.95;1.50;;;17.80;99.90;;;;;;5075801;28;20110;-77
2021/08/27 08:33:18;;;;;;;5.53;1.98;;;17.50;99.90;;;;;;5076917;28;20080;-77
2021/08/27 08:35:43;;;;;;;3.97;1.60;;;17.30;99.90;;;;;;5094411;28;20031;-75
2021/08/27 08:38:09;;;;;;;7.45;2.25;;;17.20;99.90;;;;;;5093270;28;20032;-73
2021/08/27 08:40:39;;;;;;;5.13;1.67;;;17.20;99.90;;;;;;5073066;28;20115;-75
2021/08/27 08:43:06;;;;;;;5.07;1.88;;;17.30;99.90;;;;;;5065531;28;20024;-75
2021/08/27 08:45:33;;;;;;;8.20;2.45;;;17.40;99.90;;;;;;5075680;28;20021;-79
2021/08/27 08:48:00;;;;;;;7.15;2.38;;;17.50;99.90;;;;;;5075900;28;20365;-75
2021/08/27 08:50:25;;;;;;;4.78;1.63;;;17.60;99.90;;;;;;5076801;28;20024;-77
2021/08/27 08:52:51;;;;;;;6.60;2.20;;;17.90;99.90;;;;;;5093423;28;20020;-76
2021/08/27 08:55:17;;;;;;;2.97;1.67;;;18.30;99.90;;;;;;5076213;28;20044;-78
2021/08/27 08:57:43;;;;;;;3.97;1.52;;;18.60;99.90;;;;;;5075424;28;20111;-75
2021/08/27 09:00:09;;;;;;;6.50;1.63;;;19.00;99.90;;;;;;5092821;28;20399;-75
2021/08/27 09:02:35;;;;;;;4.18;1.48;;;19.10;99.90;;;;;;5076037;28;20101;-74
2021/08/27 09:05:00;;;;;;;5.22;1.80;;;19.20;99.90;;;;;;5093858;28;20432;-76
2021/08/27 09:07:27;;;;;;;4.93;1.85;;;19.20;99.90;;;;;;5092893;28;20025;-76
2021/08/27 09:09:53;;;;;;;6.03;2.58;;;18.80;99.90;;;;;;5075505;28;20026;-76
2021/08/27 09:12:28;;;;;;;3.85;2.22;;;18.50;99.90;;;;;;5075895;28;20024;-75
2021/08/27 09:15:01;;;;;;;3.67;1.60;;;18.30;99.90;;;;;;5075330;28;20122;-75
2021/08/27 09:17:32;;;;;;;5.97;2.10;;;18.20;99.90;;;;;;5074197;28;20050;-75
2021/08/27 09:19:58;;;;;;;4.78;1.70;;;18.20;99.90;;;;;;5092031;28;20454;-74
2021/08/27 09:22:24;;;;;;;5.13;2.00;;;18.40;99.90;;;;;;5074565;28;20031;-74
2021/08/27 09:25:09;;;;;;;4.22;1.92;;;18.60;99.90;;;;;;5093590;28;20076;-74
2021/08/27 09:27:55;;;;;;;5.40;2.10;;;18.90;99.90;;;;;;5092967;28;20062;-77
2021/08/27 09:30:21;;;;;;;4.95;1.65;;;19.10;99.90;;;;;;5093038;28;20039;-74
2021/08/27 09:32:47;;;;;;;6.03;2.42;;;19.50;99.90;;;;;;5064126;28;20020;-72
2021/08/27 09:35:16;;;;;;;4.10;1.88;;;19.70;99.90;;;;;;5054327;28;20016;-73
2021/08/27 09:37:43;;;;;;;5.63;1.92;;;20.00;99.90;;;;;;5081530;28;20503;-75
2021/08/27 09:40:12;;;;;;;5.43;2.25;;;20.00;99.90;;;;;;5074865;28;20480;-73
2021/08/27 09:42:40;;;;;;;5.80;2.10;;;19.80;99.90;;;;;;5092249;28;20031;-72
2021/08/27 09:45:06;;;;;;;6.65;2.78;;;19.60;99.90;;;;;;5092688;28;20484;-72
2021/08/27 09:47:32;;;;;;;5.78;2.00;;;19.30;99.90;;;;;;5092270;28;20016;-71
2021/08/27 09:50:22;;;;;;;4.55;1.88;;;19.00;99.90;;;;;;5091958;28;20480;-72
2021/08/27 09:53:07;;;;;;;4.45;1.85;;;18.80;99.90;;;;;;5092849;28;20377;-72
2021/08/27 09:55:36;;;;;;;6.25;2.10;;;18.80;99.90;;;;;;5074615;28;20020;-75
2021/08/27 09:58:12;;;;;;;5.40;1.70;;;18.90;99.90;;;;;;5071659;28;20392;-72
2021/08/27 10:00:40;;;;;;;5.88;1.98;;;18.90;99.90;;;;;;5074057;28;20039;-73
2021/08/27 10:03:20;;;;;;;8.15;2.55;;;19.20;99.90;;;;;;5073330;28;20035;-73
2021/08/27 10:05:48;;;;;;;5.28;2.00;;;19.70;99.90;;;;;;5074427;28;20090;-72
2021/08/27 10:08:24;;;;;;;6.82;2.05;;;20.20;99.90;;;;;;5092216;28;20380;-73
2021/08/27 10:10:55;;;;;;;4.82;1.98;;;20.40;99.90;;;;;;5072848;28;20043;-73
2021/08/27 10:13:22;;;;;;;5.32;1.77;;;20.50;99.90;;;;;;5092427;28;20492;-72
2021/08/27 10:15:48;;;;;;;6.93;2.20;;;20.60;99.90;;;;;;5073311;28;20024;-72
2021/08/27 10:18:14;;;;;;;5.07;1.92;;;20.30;99.90;;;;;;5072852;28;20078;-71
2021/08/27 10:20:44;;;;;;;7.50;2.42;;;19.00;99.90;;;;;;5074419;28;20096;-72
2021/08/27 10:23:12;;;;;;;4.50;1.77;;;17.80;99.90;;;;;;5092101;28;20111;-72
2021/08/27 10:25:39;;;;;;;6.18;2.00;;;17.20;99.90;;;;;;5091827;28;20012;-72
2021/08/27 10:28:06;;;;;;;6.10;2.33;;;16.80;99.90;;;;;;5092216;28;20044;-73
2021/08/27 10:31:04;;;;;;;6.70;2.40;;;16.50;99.90;;;;;;5090948;28;20103;-73
2021/08/27 10:33:39;;;;;;;7.30;2.33;;;16.40;99.90;;;;;;5032417;28;20477;-74
2021/08/27 10:36:09;;;;;;;4.82;2.00;;;16.40;99.90;;;;;;5054210;28;20028;-72
2021/08/27 10:38:39;;;;;;;5.57;2.00;;;16.20;99.90;;;;;;5053639;28;20047;-73
2021/08/27 10:41:37;;;;;;;6.80;2.20;;;16.10;99.90;;;;;;5054482;28;20465;-74
2021/08/27 10:44:05;;;;;;;5.55;2.00;;;16.00;99.90;;;;;;5078306;28;20077;-71
2021/08/27 10:46:46;;;;;;;5.10;2.38;;;15.90;99.90;;;;;;5088837;28;20032;-72
2021/08/27 10:49:14;;;;;;;6.37;2.70;;;16.10;99.90;;;;;;5091799;28;20028;-72
2021/08/27 10:51:42;;;;;;;9.25;1.85;;;16.40;99.90;;;;;;5091514;28;20020;-73
2021/08/27 10:54:08;;;;;;;4.90;2.05;;;16.90;99.90;;;;;;5091738;28;20024;-73
2021/08/27 10:56:51;;;;;;;6.75;1.95;;;17.00;99.90;;;;;;5057016;28;20403;-73
2021/08/27 10:59:20;;;;;;;7.50;2.00;;;17.20;99.90;;;;;;5071048;28;20051;-73
2021/08/27 11:01:47;;;;;;;5.70;2.13;;;17.20;99.90;;;;;;5063316;28;20021;-74
2021/08/27 11:04:27;;;;;;;3.85;1.52;;;17.00;99.90;;;;;;5063638;28;20476;-77
2021/08/27 11:06:52;;;;;;;4.40;1.92;;;16.80;99.90;;;;;;5072468;28;20020;-74
2021/08/27 11:09:29;;;;;;;7.10;1.95;;;16.80;99.90;;;;;;5074068;28;20115;-74
2021/08/27 11:12:08;;;;;;;5.85;1.70;;;16.70;99.90;;;;;;5073887;28;20024;-75
2021/08/27 11:14:34;;;;;;;4.45;1.55;;;16.80;99.90;;;;;;5072894;28;20058;-74
2021/08/27 11:17:06;;;;;;;5.60;2.20;;;16.90;99.90;;;;;;5073131;28;20020;-75
2021/08/27 11:19:33;;;;;;;4.38;1.75;;;17.10;99.90;;;;;;5091495;28;20040;-75
2021/08/27 11:22:13;;;;;;;5.20;2.13;;;17.20;99.90;;;;;;5075066;28;20139;-75
2021/08/27 11:24:41;;;;;;;5.97;1.98;;;17.30;99.90;;;;;;5077954;28;20032;-75
2021/08/27 11:27:16;;;;;;;4.43;1.98;;;17.50;99.90;;;;;;5076843;28;20024;-75
2021/08/27 11:29:43;;;;;;;6.03;1.70;;;17.50;99.90;;;;;;5095295;28;20028;-72
2021/08/27 11:32:09;;;;;;;5.53;2.00;;;17.50;99.90;;;;;;5095147;28;20111;-76
2021/08/27 11:34:57;;;;;;;5.47;1.83;;;17.70;99.90;;;;;;5076670;28;20107;-77
2021/08/27 11:37:24;;;;;;;5.18;2.20;;;17.90;99.90;;;;;;5076822;28;20103;-71
2021/08/27 11:39:51;;;;;;;6.68;2.17;;;18.00;99.90;;;;;;5071868;28;20064;-74
2021/08/27 11:42:18;;;;;;;6.20;2.08;;;18.10;99.90;;;;;;5094879;28;20024;-70
2021/08/27 11:44:53;;;;;;;5.15;2.00;;;18.30;99.90;;;;;;5094292;28;20031;-71
2021/08/27 11:47:20;;;;;;;3.60;1.70;;;18.60;99.90;;;;;;5095362;28;20099;-73
2021/08/27 11:49:57;;;;;;;5.00;1.60;;;18.90;99.90;;;;;;5093318;28;20024;-75
2021/08/27 11:52:34;;;;;;;4.07;2.00;;;19.00;99.90;;;;;;5076652;28;20107;-74
2021/08/27 11:55:06;;;;;;;6.75;2.45;;;19.30;99.90;;;;;;5075577;28;20409;-74
2021/08/27 11:57:32;;;;;;;5.80;2.00;;;19.50;99.90;;;;;;5076243;28;20089;-75
2021/08/27 12:00:10;;;;;;;6.18;2.35;;;19.60;99.90;;;;;;5075852;28;20036;-75
2021/08/27 12:02:36;;;;;;;12.25;2.38;;;19.50;99.90;;;;;;5079264;28;20560;-73
2021/08/27 12:05:05;;;;;;;4.75;1.58;;;19.40;99.90;;;;;;5085452;28;20028;-72
2021/08/27 12:07:31;;;;;;;7.45;2.53;;;19.20;99.90;;;;;;5075882;28;20103;-74
2021/08/27 12:10:05;;;;;;;6.60;2.63;;;19.20;99.90;;;;;;5074787;28;20027;-73
2021/08/27 12:12:32;;;;;;;6.45;2.60;;;19.30;99.90;;;;;;5066886;28;20455;-74
2021/08/27 12:14:58;;;;;;;11.25;2.67;;;19.50;99.90;;;;;;5055452;28;20020;-71
2021/08/27 12:17:26;;;;;;;9.23;2.60;;;19.60;99.90;;;;;;5073551;28;20533;-73
2021/08/27 12:19:53;;;;;;;5.65;2.30;;;19.60;99.90;;;;;;5067268;28;20105;-70
2021/08/27 12:22:21;;;;;;;7.28;2.83;;;19.40;99.90;;;;;;5094320;28;20047;-73
2021/08/27 12:24:49;;;;;;;7.22;2.10;;;19.40;99.90;;;;;;5075499;28;20020;-71
2021/08/27 12:27:15;;;;;;;9.77;2.60;;;19.40;99.90;;;;;;5093877;28;20028;-71
2021/08/27 12:29:41;;;;;;;6.50;2.05;;;19.60;99.90;;;;;;5093397;28;20020;-72
2021/08/27 12:32:13;;;;;;;8.25;2.78;;;19.70;99.90;;;;;;5093462;28;20016;-70
2021/08/27 12:34:41;;;;;;;7.40;2.22;;;19.80;99.90;;;;;;5093761;28;20060;-71
2021/08/27 12:37:07;;;;;;;6.47;2.70;;;20.10;99.90;;;;;;5093229;28;20099;-72
2021/08/27 12:39:32;;;;;;;9.10;2.75;;;20.00;99.90;;;;;;5094300;28;20028;-76
2021/08/27 12:42:13;;;;;;;8.60;2.45;;;19.70;99.90;;;;;;5093350;28;20122;-77
2021/08/27 12:44:56;;;;;;;7.40;2.28;;;19.20;99.90;;;;;;5093151;28;20024;-73
2021/08/27 12:47:39;;;;;;;4.38;2.00;;;18.80;99.90;;;;;;5093474;28;20472;-72
2021/08/27 12:50:14;;;;;;;7.57;2.60;;;18.70;99.90;;;;;;5093645;28;20380;-70
2021/08/27 12:52:41;;;;;;;9.68;2.92;;;18.70;99.90;;;;;;5093052;28;20043;-71